createdAt,value
2022-08-26T00:01:45.249Z,21.70
2022-08-26T00:04:13.332Z,21.70
2022-08-26T00:06:42.707Z,21.70
2022-08-26T00:09:13.620Z,21.70
2022-08-26T00:11:44.799Z,21.60
2022-08-26T00:14:13.304Z,21.50
2022-08-26T00:16:40.964Z,21.40
2022-08-26T00:19:14.554Z,21.40
2022-08-26T00:21:41.689Z,21.40
2022-08-26T00:24:09.048Z,21.40
2022-08-26T00:26:36.597Z,21.30
2022-08-26T00:29:05.606Z,21.30
2022-08-26T00:31:33.146Z,21.20
2022-08-26T00:34:00.236Z,21.10
2022-08-26T00:36:29.711Z,21.00
2022-08-26T00:38:57.048Z,20.90
2022-08-26T00:41:24.061Z,20.90
2022-08-26T00:43:51.843Z,20.90
2022-08-26T00:46:25.319Z,20.80
2022-08-26T00:48:58.109Z,20.70
2022-08-26T00:51:28.293Z,20.70
2022-08-26T00:54:01.988Z,20.70
2022-08-26T00:56:35.976Z,20.70
2022-08-26T00:59:07.840Z,20.70
2022-08-26T01:01:38.094Z,20.80
2022-08-26T01:04:06.015Z,20.80
2022-08-26T01:06:32.926Z,20.80
2022-08-26T01:09:00.337Z,20.80
2022-08-26T01:11:27.707Z,20.80
2022-08-26T01:13:57.605Z,20.80
2022-08-26T01:16:25.717Z,20.70
2022-08-26T01:18:59.385Z,20.70
2022-08-26T01:21:30.116Z,20.70
2022-08-26T01:24:00.131Z,20.70
2022-08-26T01:26:30.903Z,20.70
2022-08-26T01:29:02.896Z,20.70
2022-08-26T01:31:34.864Z,20.70
2022-08-26T01:34:06.634Z,20.70
2022-08-26T01:36:36.909Z,20.70
2022-08-26T01:39:06.012Z,20.70
2022-08-26T01:41:35.616Z,20.70
2022-08-26T01:44:06.763Z,20.70
2022-08-26T01:46:37.225Z,20.60
2022-08-26T01:49:06.714Z,20.60
2022-08-26T01:51:37.242Z,20.60
2022-08-26T01:54:08.516Z,20.50
2022-08-26T01:56:39.492Z,20.50
2022-08-26T01:59:11.183Z,20.50
2022-08-26T02:01:39.406Z,20.40
2022-08-26T02:04:15.361Z,20.40
2022-08-26T02:06:43.143Z,20.30
2022-08-26T02:09:12.557Z,20.20
2022-08-26T02:11:42.029Z,20.20
2022-08-26T02:14:12.489Z,20.10
2022-08-26T02:16:42.217Z,20.10
2022-08-26T02:19:17.050Z,20.10
2022-08-26T02:21:45.893Z,20.10
2022-08-26T02:24:22.622Z,20.00
2022-08-26T02:26:51.329Z,20.10
2022-08-26T02:29:23.980Z,20.10
2022-08-26T02:31:51.144Z,20.10
2022-08-26T02:34:22.396Z,20.00
2022-08-26T02:36:49.756Z,19.90
2022-08-26T02:39:22.350Z,19.90
2022-08-26T02:41:49.695Z,19.90
2022-08-26T02:44:16.643Z,19.90
2022-08-26T02:46:47.110Z,20.00
2022-08-26T02:49:14.413Z,20.00
2022-08-26T02:51:41.388Z,20.00
2022-08-26T02:54:10.258Z,19.90
2022-08-26T02:56:39.091Z,19.90
2022-08-26T02:59:06.200Z,19.80
2022-08-26T03:01:35.752Z,19.80
2022-08-26T03:04:05.021Z,19.80
2022-08-26T03:06:32.643Z,19.80
2022-08-26T03:08:59.652Z,19.70
2022-08-26T03:11:30.864Z,19.80
2022-08-26T03:14:01.827Z,19.80
2022-08-26T03:16:32.821Z,19.80
2022-08-26T03:19:00.230Z,19.70
2022-08-26T03:21:27.119Z,19.70
2022-08-26T03:23:54.178Z,19.60
2022-08-26T03:26:26.194Z,19.60
2022-08-26T03:29:11.964Z,19.60
2022-08-26T03:31:40.413Z,19.50
2022-08-26T03:34:07.490Z,19.50
2022-08-26T03:36:35.035Z,19.50
2022-08-26T03:39:02.213Z,19.50
2022-08-26T03:41:32.587Z,19.50
2022-08-26T03:44:01.655Z,19.50
2022-08-26T03:46:30.371Z,19.40
2022-08-26T03:48:58.827Z,19.40
2022-08-26T03:51:25.942Z,19.30
2022-08-26T03:53:53.370Z,19.10
2022-08-26T03:56:20.361Z,19.10
2022-08-26T03:58:47.271Z,19.00
2022-08-26T04:01:16.221Z,19.00
2022-08-26T04:04:00.367Z,19.00
2022-08-26T04:06:32.072Z,19.10
2022-08-26T04:09:01.910Z,19.10
2022-08-26T04:11:34.284Z,19.10
2022-08-26T04:14:04.312Z,19.10
2022-08-26T04:16:31.894Z,19.00
2022-08-26T04:18:59.220Z,19.00
2022-08-26T04:21:27.104Z,18.90
2022-08-26T04:23:55.790Z,18.90
2022-08-26T04:26:25.735Z,18.70
2022-08-26T04:28:55.848Z,18.70
2022-08-26T04:31:23.214Z,18.70
2022-08-26T04:33:50.766Z,18.70
2022-08-26T04:36:20.087Z,18.70
2022-08-26T04:38:47.390Z,18.70
2022-08-26T04:41:17.011Z,18.80
2022-08-26T04:43:44.138Z,18.80
2022-08-26T04:46:11.684Z,18.80
2022-08-26T04:48:41.140Z,18.80
2022-08-26T04:51:08.440Z,18.80
2022-08-26T04:53:37.355Z,18.80
2022-08-26T04:56:04.538Z,18.70
2022-08-26T04:58:32.976Z,18.70
2022-08-26T05:01:00.219Z,18.60
2022-08-26T05:03:30.466Z,18.60
2022-08-26T05:05:58.769Z,18.60
2022-08-26T05:08:26.173Z,18.60
2022-08-26T05:10:56.161Z,18.60
2022-08-26T05:13:26.231Z,18.60
2022-08-26T05:15:54.674Z,18.60
2022-08-26T05:18:27.446Z,18.60
2022-08-26T05:20:54.982Z,18.70
2022-08-26T05:23:25.207Z,18.70
2022-08-26T05:25:58.885Z,18.70
2022-08-26T05:28:29.142Z,18.80
2022-08-26T05:30:57.408Z,18.80
2022-08-26T05:33:24.467Z,18.80
2022-08-26T05:35:51.459Z,18.90
2022-08-26T05:38:22.016Z,18.90
2022-08-26T05:40:52.935Z,18.90
2022-08-26T05:43:20.352Z,18.90
2022-08-26T05:45:50.448Z,18.90
2022-08-26T05:48:24.379Z,19.00
2022-08-26T05:50:53.400Z,19.00
2022-08-26T05:53:22.017Z,19.00
2022-08-26T05:55:52.533Z,19.00
2022-08-26T05:58:21.229Z,18.90
2022-08-26T06:00:58.428Z,19.00
2022-08-26T06:03:27.000Z,18.90
2022-08-26T06:05:54.190Z,19.00
2022-08-26T06:08:21.795Z,19.00
2022-08-26T06:10:51.114Z,19.00
2022-08-26T06:13:20.802Z,19.10
2022-08-26T06:15:49.643Z,19.10
2022-08-26T06:18:19.911Z,19.20
2022-08-26T06:20:57.836Z,19.20
2022-08-26T06:23:46.044Z,19.30
2022-08-26T06:26:14.187Z,19.40
2022-08-26T06:28:43.550Z,19.40
2022-08-26T06:31:12.835Z,19.50
2022-08-26T06:33:40.034Z,19.50
2022-08-26T06:36:08.652Z,19.60
2022-08-26T06:38:36.442Z,19.60
2022-08-26T06:41:03.486Z,19.70
2022-08-26T06:43:30.403Z,19.80
2022-08-26T06:46:02.110Z,19.90
2022-08-26T06:48:32.462Z,20.00
2022-08-26T06:51:05.801Z,20.10
2022-08-26T06:53:34.055Z,20.10
2022-08-26T06:56:03.754Z,20.10
2022-08-26T06:58:30.828Z,20.20
2022-08-26T07:01:02.701Z,20.30
2022-08-26T07:03:31.425Z,20.40
2022-08-26T07:06:07.369Z,20.50
2022-08-26T07:08:35.723Z,20.70
2022-08-26T07:11:05.424Z,20.80
2022-08-26T07:13:33.159Z,21.00
2022-08-26T07:16:03.175Z,21.20
2022-08-26T07:18:31.247Z,21.30
2022-08-26T07:20:58.226Z,21.40
2022-08-26T07:23:26.252Z,21.60
2022-08-26T07:25:54.571Z,21.80
2022-08-26T07:28:22.929Z,21.80
2022-08-26T07:30:50.185Z,22.00
2022-08-26T07:33:17.967Z,22.10
2022-08-26T07:35:45.500Z,22.20
2022-08-26T07:38:13.333Z,22.30
2022-08-26T07:40:41.051Z,22.50
2022-08-26T07:43:09.806Z,22.60
2022-08-26T07:45:37.049Z,22.70
2022-08-26T07:48:05.209Z,22.80
2022-08-26T07:50:49.318Z,23.00
2022-08-26T07:53:18.075Z,23.10
2022-08-26T07:55:46.553Z,23.20
2022-08-26T07:58:15.187Z,23.30
2022-08-26T08:00:43.073Z,23.30
2022-08-26T08:03:10.739Z,23.50
2022-08-26T08:05:37.901Z,23.50
2022-08-26T08:08:27.946Z,23.60
2022-08-26T08:10:56.896Z,23.70
2022-08-26T08:13:25.200Z,23.90
2022-08-26T08:15:52.192Z,23.90
2022-08-26T08:18:20.553Z,24.10
2022-08-26T08:20:59.390Z,24.10
2022-08-26T08:23:32.978Z,24.20
2022-08-26T08:26:04.230Z,24.30
2022-08-26T08:28:32.815Z,24.40
2022-08-26T08:31:00.168Z,24.50
2022-08-26T08:33:30.109Z,24.60
2022-08-26T08:35:57.409Z,24.70
2022-08-26T08:38:24.343Z,24.90
2022-08-26T08:40:51.441Z,25.00
2022-08-26T08:43:30.872Z,25.20
2022-08-26T08:46:10.412Z,25.40
2022-08-26T08:48:39.175Z,25.60
2022-08-26T08:51:13.916Z,25.80
2022-08-26T08:53:44.442Z,26.10
2022-08-26T08:56:23.706Z,26.30
2022-08-26T08:58:56.780Z,26.50
2022-08-26T09:01:42.125Z,26.70
2022-08-26T09:04:43.658Z,26.70
2022-08-26T09:07:15.757Z,26.70
2022-08-26T09:09:49.593Z,26.80
2022-08-26T09:12:29.539Z,26.90
2022-08-26T09:15:02.362Z,27.00
2022-08-26T09:17:38.653Z,27.10
2022-08-26T09:20:14.050Z,27.10
2022-08-26T09:22:41.338Z,27.10
2022-08-26T09:25:13.796Z,27.20
2022-08-26T09:27:43.560Z,27.40
2022-08-26T09:30:13.936Z,27.50
2022-08-26T09:32:43.625Z,27.60
2022-08-26T09:35:27.480Z,27.70
2022-08-26T09:37:55.193Z,27.70
2022-08-26T09:40:30.068Z,27.80
2022-08-26T09:43:15.931Z,27.90
2022-08-26T09:45:59.175Z,28.00
2022-08-26T09:48:31.224Z,28.10
2022-08-26T09:51:00.296Z,28.20
2022-08-26T09:53:30.901Z,28.40
2022-08-26T09:56:15.232Z,28.50
2022-08-26T09:58:44.841Z,28.70
2022-08-26T10:01:24.246Z,29.00
2022-08-26T10:03:53.104Z,29.30
2022-08-26T10:06:26.548Z,29.60
2022-08-26T10:08:57.263Z,30.00
2022-08-26T10:11:31.260Z,30.60
2022-08-26T10:14:02.907Z,31.40
2022-08-26T10:16:34.730Z,32.30
2022-08-26T10:19:08.687Z,33.10
2022-08-26T10:21:39.490Z,33.80
2022-08-26T10:24:09.055Z,34.40
2022-08-26T10:26:42.935Z,34.90
2022-08-26T10:29:17.092Z,35.40
2022-08-26T10:31:51.459Z,35.90
2022-08-26T10:34:21.203Z,36.30
2022-08-26T10:37:15.854Z,36.60
2022-08-26T10:39:49.214Z,36.80
2022-08-26T10:42:23.968Z,37.00
2022-08-26T10:44:58.496Z,37.30
2022-08-26T10:47:33.285Z,37.40
2022-08-26T10:50:03.676Z,37.60
2022-08-26T10:52:47.518Z,37.90
2022-08-26T10:55:19.829Z,38.00
2022-08-26T10:57:54.992Z,38.20
2022-08-26T11:00:45.522Z,38.20
2022-08-26T11:03:26.853Z,38.20
2022-08-26T11:06:24.032Z,38.30
2022-08-26T11:08:54.737Z,38.50
2022-08-26T11:11:47.017Z,38.70
2022-08-26T11:14:40.561Z,38.90
2022-08-26T11:17:58.241Z,39.00
2022-08-26T11:20:36.412Z,38.90
2022-08-26T11:23:44.796Z,38.80
2022-08-26T11:26:35.455Z,39.00
2022-08-26T11:29:12.267Z,39.20
2022-08-26T11:31:54.830Z,39.20
2022-08-26T11:34:57.821Z,39.20
2022-08-26T11:37:32.419Z,39.10
2022-08-26T11:40:03.436Z,39.00
2022-08-26T11:42:36.301Z,39.00
2022-08-26T11:45:13.277Z,39.10
2022-08-26T11:47:40.408Z,39.30
2022-08-26T11:50:11.918Z,39.30
2022-08-26T11:52:39.307Z,39.50
2022-08-26T11:55:11.069Z,39.60
2022-08-26T11:57:44.814Z,39.70
2022-08-26T12:00:21.108Z,39.80
2022-08-26T12:02:50.526Z,39.90
2022-08-26T12:05:29.426Z,40.10
2022-08-26T12:08:01.109Z,40.20
2022-08-26T12:10:31.687Z,40.20
2022-08-26T12:13:00.283Z,40.30
2022-08-26T12:15:29.541Z,40.20
2022-08-26T12:17:57.947Z,39.90
2022-08-26T12:20:48.277Z,39.50
2022-08-26T12:23:26.992Z,38.80
2022-08-26T12:26:03.067Z,38.20
2022-08-26T12:28:31.334Z,37.70
2022-08-26T12:31:00.230Z,37.20
2022-08-26T12:33:28.785Z,36.90
2022-08-26T12:35:59.360Z,36.90
2022-08-26T12:38:27.920Z,37.10
2022-08-26T12:40:56.881Z,37.40
2022-08-26T12:43:43.888Z,37.60
2022-08-26T12:46:15.870Z,37.70
2022-08-26T12:48:47.785Z,37.50
2022-08-26T12:51:24.397Z,37.30
2022-08-26T12:53:52.582Z,37.00
2022-08-26T12:56:35.991Z,36.90
2022-08-26T12:59:07.251Z,37.10
2022-08-26T13:01:42.509Z,36.80
2022-08-26T13:04:34.892Z,36.60
2022-08-26T13:07:24.309Z,36.60
2022-08-26T13:09:53.119Z,36.50
2022-08-26T13:12:28.316Z,36.30
2022-08-26T13:14:55.975Z,36.10
2022-08-26T13:17:22.891Z,35.80
2022-08-26T13:19:49.843Z,35.40
2022-08-26T13:22:20.251Z,35.20
2022-08-26T13:24:48.486Z,34.80
2022-08-26T13:27:15.455Z,34.40
2022-08-26T13:29:42.411Z,34.00
2022-08-26T13:32:09.709Z,33.60
2022-08-26T13:34:38.276Z,33.40
2022-08-26T13:37:05.981Z,33.20
2022-08-26T13:39:33.163Z,33.10
2022-08-26T13:42:01.385Z,32.80
2022-08-26T13:44:28.340Z,32.60
2022-08-26T13:46:55.219Z,32.60
2022-08-26T13:49:22.567Z,32.50
2022-08-26T13:51:49.450Z,32.40
2022-08-26T13:54:16.359Z,32.40
2022-08-26T13:56:43.300Z,32.20
2022-08-26T13:59:11.613Z,32.00
2022-08-26T14:01:40.028Z,31.80
2022-08-26T14:04:07.138Z,31.50
2022-08-26T14:06:34.129Z,31.20
2022-08-26T14:09:01.472Z,31.10
2022-08-26T14:11:29.658Z,30.80
2022-08-26T14:14:05.956Z,30.60
2022-08-26T14:16:37.852Z,30.30
2022-08-26T14:19:24.681Z,29.80
2022-08-26T14:21:51.552Z,29.00
2022-08-26T14:24:18.470Z,28.50
2022-08-26T14:26:47.653Z,27.80
2022-08-26T14:29:16.697Z,27.30
2022-08-26T14:31:45.402Z,26.70
2022-08-26T14:34:13.847Z,26.10
2022-08-26T14:36:40.756Z,25.60
2022-08-26T14:39:10.797Z,25.20
2022-08-26T14:41:40.987Z,25.00
2022-08-26T14:44:11.960Z,24.90
2022-08-26T14:46:43.590Z,24.70
2022-08-26T14:49:12.793Z,24.50
2022-08-26T14:51:40.915Z,24.40
2022-08-26T14:54:14.694Z,24.40
2022-08-26T14:56:46.062Z,24.30
2022-08-26T14:59:14.214Z,24.00
2022-08-26T15:01:41.245Z,23.70
2022-08-26T15:04:08.209Z,23.50
2022-08-26T15:06:36.828Z,23.40
2022-08-26T15:09:04.925Z,23.40
2022-08-26T15:11:32.049Z,23.30
2022-08-26T15:14:00.273Z,23.40
2022-08-26T15:16:27.543Z,23.40
2022-08-26T15:18:54.539Z,23.50
2022-08-26T15:21:22.208Z,23.50
2022-08-26T15:23:51.735Z,23.60
2022-08-26T15:26:19.687Z,23.70
2022-08-26T15:28:46.767Z,23.80
2022-08-26T15:31:13.858Z,24.00
2022-08-26T15:33:40.874Z,24.10
2022-08-26T15:36:09.084Z,24.20
2022-08-26T15:38:38.393Z,24.30
2022-08-26T15:41:08.672Z,24.40
2022-08-26T15:43:36.424Z,24.50
2022-08-26T15:46:04.335Z,24.60
2022-08-26T15:48:31.434Z,24.60
2022-08-26T15:51:00.530Z,24.70
2022-08-26T15:53:29.567Z,24.70
2022-08-26T15:56:32.755Z,24.70
2022-08-26T15:59:02.307Z,24.80
2022-08-26T16:01:31.561Z,24.80
2022-08-26T16:03:59.509Z,24.90
2022-08-26T16:06:29.399Z,24.80
2022-08-26T16:08:56.855Z,24.60
2022-08-26T16:11:24.387Z,24.60
2022-08-26T16:13:53.068Z,24.50
2022-08-26T16:16:21.336Z,24.30
2022-08-26T16:18:48.444Z,24.10
2022-08-26T16:21:16.431Z,23.90
2022-08-26T16:23:45.389Z,23.80
2022-08-26T16:26:14.780Z,23.70
2022-08-26T16:28:42.065Z,23.50
2022-08-26T16:31:12.744Z,23.30
2022-08-26T16:33:40.574Z,23.10
2022-08-26T16:36:08.944Z,22.90
2022-08-26T16:38:37.589Z,22.70
2022-08-26T16:41:05.938Z,22.50
2022-08-26T16:43:33.268Z,22.40
2022-08-26T16:46:00.437Z,22.10
2022-08-26T16:48:28.797Z,21.90
2022-08-26T16:50:55.854Z,21.80
2022-08-26T16:53:22.961Z,21.80
2022-08-26T16:55:50.565Z,21.90
2022-08-26T16:58:18.019Z,22.00
2022-08-26T17:00:45.328Z,22.10
2022-08-26T17:03:12.631Z,22.20
2022-08-26T17:05:40.934Z,22.20
2022-08-26T17:08:07.929Z,22.20
2022-08-26T17:10:35.093Z,22.20
2022-08-26T17:13:02.271Z,22.00
2022-08-26T17:15:29.545Z,22.00
2022-08-26T17:17:57.085Z,21.90
2022-08-26T17:20:25.339Z,21.90
2022-08-26T17:22:55.148Z,21.90
2022-08-26T17:25:25.749Z,21.80
2022-08-26T17:27:53.073Z,21.80
2022-08-26T17:30:20.994Z,21.70
2022-08-26T17:32:48.466Z,21.60
2022-08-26T17:35:16.812Z,21.50
2022-08-26T17:37:44.338Z,21.50
2022-08-26T17:40:15.460Z,21.50
2022-08-26T17:42:42.779Z,21.50
2022-08-26T17:45:10.964Z,21.40
2022-08-26T17:47:38.940Z,21.30
2022-08-26T17:50:09.107Z,21.30
2022-08-26T17:52:36.502Z,21.20
2022-08-26T17:55:04.693Z,21.20
2022-08-26T17:57:33.145Z,21.10
2022-08-26T18:00:12.140Z,21.00
2022-08-26T18:02:39.726Z,21.00
2022-08-26T18:05:07.588Z,20.90
2022-08-26T18:07:37.705Z,20.80
2022-08-26T18:10:13.764Z,20.80
2022-08-26T18:12:42.521Z,20.70
2022-08-26T18:15:10.917Z,20.70
2022-08-26T18:17:41.707Z,20.60
2022-08-26T18:20:11.577Z,20.60
2022-08-26T18:22:38.516Z,20.60
2022-08-26T18:25:07.851Z,20.60
2022-08-26T18:27:37.907Z,20.60
2022-08-26T18:30:11.347Z,20.60
2022-08-26T18:32:40.516Z,20.60
2022-08-26T18:35:08.536Z,20.60
2022-08-26T18:37:35.546Z,20.50
2022-08-26T18:40:03.954Z,20.50
2022-08-26T18:42:31.167Z,20.50
2022-08-26T18:44:58.245Z,20.50
2022-08-26T18:47:26.903Z,20.60
2022-08-26T18:49:53.858Z,20.60
2022-08-26T18:52:20.747Z,20.60
2022-08-26T18:54:49.833Z,20.70
2022-08-26T18:57:17.269Z,20.80
2022-08-26T18:59:44.240Z,20.80
2022-08-26T19:02:11.400Z,20.80
2022-08-26T19:04:39.842Z,20.70
2022-08-26T19:07:06.971Z,20.80
2022-08-26T19:09:35.136Z,20.80
2022-08-26T19:12:04.223Z,20.80
2022-08-26T19:14:32.538Z,20.80
2022-08-26T19:17:00.413Z,20.80
2022-08-26T19:19:27.442Z,20.80
2022-08-26T19:21:55.650Z,20.80
2022-08-26T19:24:23.153Z,20.80
2022-08-26T19:26:58.017Z,20.80
2022-08-26T19:29:28.043Z,20.80
2022-08-26T19:31:55.334Z,20.80
2022-08-26T19:34:22.241Z,20.80
2022-08-26T19:36:50.404Z,20.80
2022-08-26T19:39:19.093Z,20.80
2022-08-26T19:41:45.991Z,20.70
2022-08-26T19:44:34.564Z,20.70
2022-08-26T19:47:03.481Z,20.70
2022-08-26T19:49:30.749Z,20.60
2022-08-26T19:51:58.073Z,20.60
2022-08-26T19:54:27.133Z,20.50
2022-08-26T19:56:54.531Z,20.50
2022-08-26T19:59:21.514Z,20.40
2022-08-26T20:02:01.234Z,20.40
2022-08-26T20:04:28.912Z,20.40
2022-08-26T20:06:57.728Z,20.40
2022-08-26T20:09:29.716Z,20.30
2022-08-26T20:11:57.086Z,20.30
2022-08-26T20:14:24.308Z,20.30
2022-08-26T20:16:51.270Z,20.30
2022-08-26T20:19:37.702Z,20.30
2022-08-26T20:22:05.109Z,20.30
2022-08-26T20:24:35.552Z,20.30
2022-08-26T20:27:07.295Z,20.20
2022-08-26T20:29:35.420Z,20.30
2022-08-26T20:32:02.985Z,20.20
2022-08-26T20:34:30.531Z,20.20
2022-08-26T20:36:57.538Z,20.20
2022-08-26T20:39:24.447Z,20.20
2022-08-26T20:41:53.236Z,20.10
2022-08-26T20:44:20.215Z,20.10
2022-08-26T20:46:47.204Z,20.10
2022-08-26T20:49:15.348Z,20.10
2022-08-26T20:51:45.697Z,20.10
2022-08-26T20:54:13.066Z,20.10
2022-08-26T20:56:40.071Z,20.10
2022-08-26T20:59:08.689Z,20.10
2022-08-26T21:01:39.845Z,20.00
2022-08-26T21:04:11.675Z,19.90
2022-08-26T21:06:38.706Z,19.90
2022-08-26T21:09:08.330Z,19.80
2022-08-26T21:11:37.486Z,19.70
2022-08-26T21:14:06.945Z,19.70
2022-08-26T21:16:46.275Z,19.70
2022-08-26T21:19:14.765Z,19.60
2022-08-26T21:21:42.163Z,19.60
2022-08-26T21:24:09.170Z,19.60
2022-08-26T21:26:36.081Z,19.50
2022-08-26T21:29:03.583Z,19.50
2022-08-26T21:31:31.880Z,19.50
2022-08-26T21:34:00.440Z,19.50
2022-08-26T21:36:27.633Z,19.50
2022-08-26T21:38:56.102Z,19.50
2022-08-26T21:41:23.370Z,19.40
2022-08-26T21:43:53.491Z,19.40
2022-08-26T21:46:23.425Z,19.40
2022-08-26T21:48:53.997Z,19.40
2022-08-26T21:51:25.105Z,19.40
2022-08-26T21:53:52.919Z,19.40
2022-08-26T21:56:21.591Z,19.40
2022-08-26T21:58:48.718Z,19.40
2022-08-26T22:01:22.128Z,19.50
2022-08-26T22:03:49.958Z,19.50
2022-08-26T22:06:18.389Z,19.50
2022-08-26T22:08:46.613Z,19.50
2022-08-26T22:11:14.674Z,19.50
2022-08-26T22:13:42.585Z,19.50
2022-08-26T22:16:10.161Z,19.50
2022-08-26T22:18:38.104Z,19.50
2022-08-26T22:21:06.817Z,19.50
2022-08-26T22:23:34.934Z,19.50
2022-08-26T22:26:05.139Z,19.50
2022-08-26T22:28:32.156Z,19.50
2022-08-26T22:30:59.189Z,19.50
2022-08-26T22:33:26.675Z,19.50
2022-08-26T22:35:54.193Z,19.50
2022-08-26T22:38:23.676Z,19.60
2022-08-26T22:40:55.254Z,19.60
2022-08-26T22:43:24.495Z,19.60
2022-08-26T22:45:52.991Z,19.60
2022-08-26T22:48:23.888Z,19.60
2022-08-26T22:50:54.494Z,19.60
2022-08-26T22:53:24.263Z,19.60
2022-08-26T22:55:51.507Z,19.60
2022-08-26T22:58:18.946Z,19.60
2022-08-26T23:00:48.113Z,19.60
2022-08-26T23:03:15.880Z,19.60
2022-08-26T23:05:44.600Z,19.60
2022-08-26T23:08:13.307Z,19.60
2022-08-26T23:10:41.770Z,19.60
2022-08-26T23:13:09.071Z,19.60
2022-08-26T23:15:36.093Z,19.60
2022-08-26T23:18:04.495Z,19.60
2022-08-26T23:20:32.465Z,19.60
2022-08-26T23:23:00.265Z,19.60
2022-08-26T23:25:27.995Z,19.50
2022-08-26T23:27:55.228Z,19.40
2022-08-26T23:30:25.520Z,19.30
2022-08-26T23:32:52.473Z,19.20
2022-08-26T23:35:21.663Z,19.20
2022-08-26T23:37:53.034Z,19.20
2022-08-26T23:40:25.330Z,19.20
2022-08-26T23:42:53.340Z,19.30
2022-08-26T23:45:21.355Z,19.30
2022-08-26T23:47:50.539Z,19.30
2022-08-26T23:50:18.759Z,19.30
2022-08-26T23:53:05.754Z,19.30
2022-08-26T23:55:35.235Z,19.30
2022-08-26T23:58:02.140Z,19.30
